• Join FlightAware (Why Join?)
  • Login
  • US Flag 
04:38AM EDT


 

Airport Tracker/Info


-or-


 

Live Flight TrackerFlight Track Log ✈ UAL4401 ✈ 15-Apr-2013 ✈ KIAH - KIAD

Flight Track Log - Related Links

Times and Time Zones

All times are in EDT time to prevent confusion due to time zone crossing. See the UAL4401 flight status page for this flight to view local times or setup timezone preferences in your user account.

Time Position Orientation Groundspeed Altitude Reporting Facility
EDT Latitude Longitude Course Direction KTS MPH feet Rate Location/Type
08:41PM 29.9228 -94.9219 97° East  Level FlightAware Approximate
08:42PM 29.9098 -94.7836 95° East  Level FlightAware Approximate
08:43PM 29.8976 -94.6452 97° East  Level FlightAware Approximate
08:44PM 29.8824 -94.5072 97° East  Level FlightAware Approximate
08:45PM 29.8670 -94.3692 97° East  Level FlightAware Approximate
08:46PM 29.8500 -94.2354 90° East  Level FlightAware Approximate
08:47PM 29.8500 -94.0963 90° East  Level FlightAware Approximate
08:48PM 29.8607 -93.9583 81° East  Level FlightAware Approximate
08:49PM 29.8725 -93.8202 82° East  Level FlightAware Approximate
08:50PM 29.8833 -93.6820 90° East  Level FlightAware Approximate
08:51PM 29.8959 -93.5439 82° East  Level FlightAware Approximate
08:52PM 29.9121 -93.4061 82° East  Level FlightAware Approximate
08:53PM 29.9195 -93.2676 78° East  Level FlightAware Approximate
08:54PM 29.9443 -93.1314 78° East  Level FlightAware Approximate
08:55PM 29.9589 -92.9934 84° East  Level FlightAware Approximate
08:56PM 29.9667 -92.8546 90° East  Level FlightAware Approximate
08:57PM 29.9739 -92.7161 81° East  Level FlightAware Approximate
08:58PM 29.9873 -92.5780 85° East  Level FlightAware Approximate
08:59PM 29.9973 -92.4392 85° East  Level FlightAware Approximate
09:00PM 30.0070 -92.3004 85° East  Level FlightAware Approximate
09:01PM 30.0167 -92.1616 85° East  Level FlightAware Approximate
09:02PM 30.0262 -92.0227 85° East  Level FlightAware Approximate
09:03PM 30.0357 -91.8838 85° East  Level FlightAware Approximate
09:04PM 30.0457 -91.7450 85° East  Level FlightAware Approximate
09:05PM 30.0555 -91.6061 85° East  Level FlightAware Approximate
09:06PM 30.0652 -91.4672 85° East  Level FlightAware Approximate
09:07PM 30.0748 -91.3283 85° East  Level FlightAware Approximate
09:08PM 30.0842 -91.1894 85° East  Level FlightAware Approximate
09:09PM 30.0934 -91.0504 86° East  Level FlightAware Approximate
09:10PM 30.1093 -90.9128 74° East  Level FlightAware Approximate
09:11PM 30.1429 -90.7789 74° East  Level FlightAware Approximate
09:12PM 30.1763 -90.6449 74° East  Level FlightAware Approximate
09:13PM 30.2098 -90.5108 74° East  Level FlightAware Approximate
09:14PM 30.2432 -90.3767 74° East  Level FlightAware Approximate
09:15PM 30.2764 -90.2425 74° East  Level FlightAware Approximate
09:16PM 30.3095 -90.1082 74° East  Level FlightAware Approximate
09:17PM 30.3425 -89.9738 74° East  Level FlightAware Approximate
09:18PM 30.3753 -89.8393 74° East  Level FlightAware Approximate
09:19PM 30.4080 -89.7047 74° East  Level FlightAware Approximate
09:20PM 30.4403 -89.5700 75° East  Level FlightAware Approximate
09:21PM 30.4715 -89.4349 75° East  Level FlightAware Approximate
09:22PM 30.5027 -89.2996 75° East  Level FlightAware Approximate
09:23PM 30.5336 -89.1643 75° East  Level FlightAware Approximate
09:24PM 30.5645 -89.0290 75° East  Level FlightAware Approximate
09:25PM 30.5951 -88.8935 75° East  Level FlightAware Approximate
09:26PM 30.6257 -88.7579 75° East  Level FlightAware Approximate
09:27PM 30.6561 -88.6223 75° East  Level FlightAware Approximate
09:28PM 30.6864 -88.4865 75° East  Level FlightAware Approximate
09:29PM 30.7165 -88.3507 76° East  Level FlightAware Approximate
09:30PM 30.7959 -88.2452 49° Northeast  Level FlightAware Approximate
09:31PM 30.8755 -88.1397 49° Northeast  Level FlightAware Approximate
09:32PM 30.9550 -88.0340 49° Northeast  Level FlightAware Approximate
09:33PM 31.0344 -87.9281 49° Northeast  Level FlightAware Approximate
09:34PM 31.1137 -87.8220 49° Northeast  Level FlightAware Approximate
09:35PM 31.1929 -87.7158 49° Northeast  Level FlightAware Approximate
09:36PM 31.2717 -87.6090 52° Northeast  Level FlightAware Approximate
09:37PM 31.3468 -87.4986 49° Northeast  Level FlightAware Approximate
09:38PM 31.4262 -87.3923 49° Northeast  Level FlightAware Approximate
09:39PM 31.5055 -87.2857 49° Northeast  Level FlightAware Approximate
09:40PM 31.5847 -87.1790 49° Northeast  Level FlightAware Approximate
09:41PM 31.6638 -87.0721 49° Northeast  Level FlightAware Approximate
09:42PM 31.7429 -86.9651 49° Northeast  Level FlightAware Approximate
09:43PM 31.8218 -86.8578 49° Northeast  Level FlightAware Approximate
09:44PM 31.9007 -86.7504 49° Northeast  Level FlightAware Approximate
09:45PM 31.9794 -86.6427 49° Northeast  Level FlightAware Approximate
09:46PM 32.0581 -86.5349 49° Northeast  Level FlightAware Approximate
09:47PM 32.1367 -86.4269 49° Northeast  Level FlightAware Approximate
09:48PM 32.2151 -86.3188 49° Northeast  Level FlightAware Approximate
09:49PM 32.2899 -86.2068 52° Northeast  Level FlightAware Approximate
09:50PM 32.3647 -86.0949 52° Northeast  Level FlightAware Approximate
09:51PM 32.4395 -85.9828 52° Northeast  Level FlightAware Approximate
09:52PM 32.5142 -85.8706 52° Northeast  Level FlightAware Approximate
09:53PM 32.5888 -85.7582 52° Northeast  Level FlightAware Approximate
09:54PM 32.6633 -85.6456 52° Northeast  Level FlightAware Approximate
09:55PM 32.7377 -85.5328 52° Northeast  Level FlightAware Approximate
09:56PM 32.8120 -85.4198 52° Northeast  Level FlightAware Approximate
09:57PM 32.8862 -85.3067 52° Northeast  Level FlightAware Approximate
09:58PM 32.9603 -85.1933 52° Northeast  Level FlightAware Approximate
09:59PM 33.0343 -85.0798 52° Northeast  Level FlightAware Approximate
10:00PM 33.1082 -84.9660 52° Northeast  Level FlightAware Approximate
10:01PM 33.1820 -84.8521 52° Northeast  Level FlightAware Approximate
10:02PM 33.2569 -84.7391 52° Northeast  Level FlightAware Approximate
10:03PM 33.3318 -84.6260 52° Northeast  Level FlightAware Approximate
10:04PM 33.4065 -84.5127 52° Northeast  Level FlightAware Approximate
10:05PM 33.4812 -84.3991 52° Northeast  Level FlightAware Approximate
10:06PM 33.5557 -84.2854 52° Northeast  Level FlightAware Approximate
10:07PM 33.6302 -84.1715 52° Northeast  Level FlightAware Approximate
10:08PM 33.7028 -84.0559 53° Northeast  Level FlightAware Approximate
10:09PM 33.7753 -83.9400 53° Northeast  Level FlightAware Approximate
10:10PM 33.8477 -83.8239 53° Northeast  Level FlightAware Approximate
10:11PM 33.9198 -83.7075 53° Northeast  Level FlightAware Approximate
10:12PM 33.9917 -83.5907 53° Northeast  Level FlightAware Approximate
10:13PM 34.0650 -83.4752 52° Northeast  Level FlightAware Approximate
10:14PM 34.1391 -83.3602 52° Northeast  Level FlightAware Approximate
10:15PM 34.2131 -83.2451 52° Northeast  Level FlightAware Approximate
10:16PM 34.2869 -83.1298 52° Northeast  Level FlightAware Approximate
10:17PM 34.3607 -83.0142 52° Northeast  Level FlightAware Approximate
10:18PM 34.4343 -82.8985 53° Northeast  Level FlightAware Approximate
10:19PM 34.5066 -82.7814 53° Northeast  Level FlightAware Approximate
10:20PM 34.5788 -82.6641 53° Northeast  Level FlightAware Approximate
10:21PM 34.6509 -82.5466 53° Northeast  Level FlightAware Approximate
10:22PM 34.7228 -82.4289 53° Northeast  Level FlightAware Approximate
10:23PM 34.7947 -82.3110 53° Northeast  Level FlightAware Approximate
10:24PM 34.8664 -82.1929 53° Northeast  Level FlightAware Approximate
10:25PM 34.9381 -82.0746 54° Northeast  Level FlightAware Approximate
10:26PM 35.0096 -81.9561 54° Northeast  Level FlightAware Approximate
10:27PM 35.0755 -81.8329 58° Northeast  Level FlightAware Approximate
10:28PM 35.1386 -81.7073 58° Northeast  Level FlightAware Approximate
10:29PM 35.2016 -81.5815 58° Northeast  Level FlightAware Approximate
10:30PM 35.2644 -81.4554 59° Northeast  Level FlightAware Approximate
10:31PM 35.3271 -81.3292 59° Northeast  Level FlightAware Approximate
10:32PM 35.3930 -81.2054 57° Northeast  Level FlightAware Approximate
10:33PM 35.4592 -81.0817 57° Northeast  Level FlightAware Approximate
10:34PM 35.5253 -80.9577 57° Northeast  Level FlightAware Approximate
10:35PM 35.5912 -80.8336 57° Northeast  Level FlightAware Approximate
10:36PM 35.6570 -80.7093 57° Northeast  Level FlightAware Approximate
10:37PM 35.7226 -80.5847 57° Northeast  Level FlightAware Approximate
10:38PM 35.7882 -80.4600 57° Northeast  Level FlightAware Approximate
10:39PM 35.8536 -80.3350 57° Northeast  Level FlightAware Approximate
10:40PM 35.9189 -80.2098 57° Northeast  Level FlightAware Approximate
10:41PM 35.9809 -80.0821 61° Northeast  Level FlightAware Approximate
10:42PM 36.0416 -79.9535 52° Northeast  Level FlightAware Approximate
10:43PM 36.1153 -79.8354 52° Northeast  Level FlightAware Approximate
10:44PM 36.1840 -79.7127 55° Northeast  Level FlightAware Approximate
10:45PM 36.2525 -79.5896 55° Northeast  Level FlightAware Approximate
10:46PM 36.3208 -79.4663 55° Northeast  Level FlightAware Approximate
10:47PM 36.3876 -79.3416 58° Northeast  Level FlightAware Approximate
10:48PM 36.4595 -79.2323 56° Northeast  Level FlightAware Approximate
10:49PM 36.5266 -79.1076 56° Northeast  Level FlightAware Approximate
10:50PM 36.5936 -78.9828 56° Northeast  Level FlightAware Approximate
10:51PM 36.6604 -78.8577 56° Northeast  Level FlightAware Approximate
10:52PM 36.7260 -78.7314 58° Northeast  Level FlightAware Approximate
10:53PM 36.7903 -78.6041 55° Northeast  Level FlightAware Approximate
10:54PM 36.8592 -78.4805 55° Northeast  Level FlightAware Approximate
10:55PM 36.9279 -78.3566 55° Northeast  Level FlightAware Approximate
10:56PM 37.0030 -78.2395 53° Northeast  Level FlightAware Approximate
10:57PM 37.0974 -78.1475 34° Northeast  Level FlightAware Approximate
10:58PM 37.1988 -78.0657 32° Northeast  Level FlightAware Approximate
10:59PM 37.3013 -77.9857 32° Northeast  Level FlightAware Approximate
11:00PM 37.4036 -77.9055 32° Northeast  Level FlightAware Approximate
11:01PM 37.5060 -77.8251 32° Northeast  Level FlightAware Approximate
11:02PM 37.6160 -77.7633 23° Northeast  Level FlightAware Approximate
11:03PM 37.7269 -77.7035 23° Northeast  Level FlightAware Approximate
11:04PM 37.8339 -77.6333 North  Level FlightAware Approximate
11:05PM 37.9420 -77.5715 25° Northeast  Level FlightAware Approximate
11:06PM 38.0536 -77.5139 31° Northeast  Level FlightAware Approximate
11:07PM 38.1608 -77.4446 21° North  Level FlightAware Approximate
11:08PM 38.2687 -77.3764 28° Northeast  Level FlightAware Approximate
11:09PM 38.3850 -77.3500 North  Level FlightAware Approximate
11:10PM 38.5056 -77.3500 North  Level FlightAware Approximate
11:11PM 38.6262 -77.3500 North  Level FlightAware Approximate
11:12PM 38.7468 -77.3500 North  Level FlightAware Approximate
11:13PM 38.8674 -77.3500 North  Level FlightAware Approximate